Time;durP1;ratioP1;P1;durP2;ratioP2;P2;SDS_P1;SDS_P2;PMS_P1;PMS_P2;Temp;Humidity;BMP_temperature;BMP_pressure;BME280_temperature;BME280_humidity;BME280_pressure;Samples;Min_cycle;Max_cycle;Signal;HPM_P1;HPM_P2
2024/01/15 00:00:03;;;;;;;;;;;;;;;1.06;62.66;98391.13;4451920;32;33479;-85
2024/01/15 00:02:37;;;;;;;;;;;;;;;1.22;62.23;98380.94;4449011;32;34683;-81
2024/01/15 00:05:15;;;;;;;;;;;;;;;1.44;61.17;98375.03;4449010;32;34550;-85
2024/01/15 00:07:52;;;;;;;;;;;;;;;1.46;61.18;98372.50;4450751;32;34005;-83
2024/01/15 00:10:21;;;;;;;;;;;;;;;1.42;61.38;98365.66;4454419;32;33290;-82
2024/01/15 00:12:52;;;;;;;;;;;;;;;1.38;61.68;98361.41;4448046;32;33737;-82
2024/01/15 00:15:20;;;;;;;;;;;;;;;1.40;61.45;98354.56;4447440;32;33886;-83
2024/01/15 00:17:51;;;;;;;;;;;;;;;1.37;61.52;98341.81;4450715;32;34506;-82
2024/01/15 00:20:19;;;;;;;;;;;;;;;1.37;61.47;98337.53;4447155;32;32768;-82
2024/01/15 00:22:48;;;;;;;;;;;;;;;1.49;61.22;98326.47;4451333;32;33814;-83
2024/01/15 00:25:18;;;;;;;;;;;;;;;1.36;61.87;98319.66;4458817;32;34252;-82
2024/01/15 00:27:47;;;;;;;;;;;;;;;1.43;61.58;98311.16;4462208;32;34229;-82
2024/01/15 00:30:19;;;;;;;;;;;;;;;1.64;61.13;98311.19;4468613;32;33858;-82
2024/01/15 00:32:50;;;;;;;;;;;;;;;1.46;61.49;98296.66;4467850;32;35275;-85
2024/01/15 00:35:19;;;;;;;;;;;;;;;1.55;61.37;98293.28;4464064;32;35324;-84
2024/01/15 00:37:48;;;;;;;;;;;;;;;1.55;61.55;98292.41;4458660;32;34167;-83
2024/01/15 00:40:22;;;;;;;;;;;;;;;1.53;61.50;98287.31;4448015;32;32896;-82
2024/01/15 00:42:51;;;;;;;;;;;;;;;1.51;61.70;98301.78;4452667;32;33946;-81
2024/01/15 00:45:21;;;;;;;;;;;;;;;1.61;61.33;98297.53;4448017;32;33894;-84
2024/01/15 00:47:50;;;;;;;;;;;;;;;1.57;61.62;98299.25;4461348;32;33509;-82
2024/01/15 00:50:22;;;;;;;;;;;;;;;1.26;62.08;98291.53;4463081;32;33890;-81
2024/01/15 00:52:50;;;;;;;;;;;;;;;1.16;62.40;98292.38;4466796;32;34244;-86
2024/01/15 00:55:20;;;;;;;;;;;;;;;0.76;63.77;98282.06;4464908;32;33854;-84
2024/01/15 00:57:49;;;;;;;;;;;;;;;1.01;62.87;98289.78;4461513;32;34009;-82
2024/01/15 01:00:21;;;;;;;;;;;;;;;0.94;63.18;98285.50;4447628;32;33055;-82
2024/01/15 01:02:51;;;;;;;;;;;;;;;0.94;63.71;98288.06;4453856;32;33616;-85
2024/01/15 01:05:21;;;;;;;;;;;;;;;0.75;64.42;98288.03;4468244;32;33635;-82
2024/01/15 01:07:49;;;;;;;;;;;;;;;0.93;63.88;98288.91;4452499;32;34277;-82
2024/01/15 01:10:23;;;;;;;;;;;;;;;0.28;66.74;98280.16;4447537;32;32689;-84
2024/01/15 01:12:52;;;;;;;;;;;;;;;0.67;65.68;98288.81;4457409;32;34367;-83
2024/01/15 01:15:27;;;;;;;;;;;;;;;0.69;65.27;98285.44;4457619;32;33748;-82
2024/01/15 01:17:59;;;;;;;;;;;;;;;0.44;65.65;98284.50;4467240;32;33519;-85
2024/01/15 01:20:38;;;;;;;;;;;;;;;0.29;65.79;98269.09;4455369;32;32736;-82
2024/01/15 01:23:08;;;;;;;;;;;;;;;0.49;65.15;98277.69;4448535;32;33506;-82
2024/01/15 01:25:36;;;;;;;;;;;;;;;0.92;63.89;98275.31;4456830;32;32866;-84
2024/01/15 01:28:05;;;;;;;;;;;;;;;0.74;64.79;98265.88;4464184;32;34174;-83
2024/01/15 01:30:37;;;;;;;;;;;;;;;1.08;63.29;98260.00;4449689;32;32656;-82
2024/01/15 01:33:07;;;;;;;;;;;;;;;1.05;63.58;98254.03;4452924;32;34713;-82
2024/01/15 01:35:39;;;;;;;;;;;;;;;1.10;63.50;98253.19;4448006;32;33672;-85
2024/01/15 01:38:12;;;;;;;;;;;;;;;1.20;62.99;98253.19;4463390;32;33315;-83
2024/01/15 01:40:41;;;;;;;;;;;;;;;0.97;63.43;98252.34;4467853;32;33196;-84
2024/01/15 01:43:10;;;;;;;;;;;;;;;0.89;63.33;98238.69;4462930;32;34850;-83
2024/01/15 01:45:41;;;;;;;;;;;;;;;0.93;62.99;98233.59;4448305;32;33827;-82
2024/01/15 01:48:11;;;;;;;;;;;;;;;1.01;62.85;98224.22;4447279;32;34039;-82
2024/01/15 01:50:43;;;;;;;;;;;;;;;0.98;62.58;98228.50;4451296;32;32717;-83
2024/01/15 01:53:17;;;;;;;;;;;;;;;0.94;62.65;98226.78;4451904;32;35148;-83
2024/01/15 01:55:45;;;;;;;;;;;;;;;0.64;63.30;98221.59;4448075;32;33766;-85
2024/01/15 01:58:14;;;;;;;;;;;;;;;0.15;65.14;98211.22;4446560;32;33685;-82
2024/01/15 02:00:49;;;;;;;;;;;;;;;-0.22;66.87;98213.59;4450064;32;33445;-84
2024/01/15 02:03:21;;;;;;;;;;;;;;;-0.13;67.27;98212.78;4458516;32;33246;-81
2024/01/15 02:05:50;;;;;;;;;;;;;;;0.07;67.61;98214.59;4448492;32;34272;-83
2024/01/15 02:08:22;;;;;;;;;;;;;;;-0.48;69.48;98192.19;4453224;32;33594;-81
2024/01/15 02:10:53;;;;;;;;;;;;;;;0.37;66.28;98199.41;4446424;32;34216;-84
2024/01/15 02:13:21;;;;;;;;;;;;;;;0.48;65.92;98191.78;4447294;32;35205;-82
2024/01/15 02:15:50;;;;;;;;;;;;;;;0.62;65.21;98202.03;4452149;32;34681;-82
2024/01/15 02:18:23;;;;;;;;;;;;;;;1.06;64.03;98214.91;4451081;32;34714;-82
2024/01/15 02:20:52;;;;;;;;;;;;;;;0.88;64.67;98203.81;4446302;32;33195;-83
2024/01/15 02:23:22;;;;;;;;;;;;;;;0.68;65.33;98201.19;4446245;32;34125;-81
2024/01/15 02:25:51;;;;;;;;;;;;;;;0.65;65.25;98196.94;4466381;32;33471;-81
2024/01/15 02:28:20;;;;;;;;;;;;;;;0.18;66.44;98184.91;4463876;32;34608;-81
2024/01/15 02:30:55;;;;;;;;;;;;;;;0.77;64.40;98185.91;4458067;32;33064;-84
2024/01/15 02:33:30;;;;;;;;;;;;;;;0.80;64.41;98178.28;4454619;32;34528;-81
2024/01/15 02:35:59;;;;;;;;;;;;;;;0.62;65.02;98177.38;4446607;32;34251;-84
2024/01/15 02:38:31;;;;;;;;;;;;;;;0.55;65.38;98180.75;4452080;32;34603;-81
2024/01/15 02:41:00;;;;;;;;;;;;;;;0.58;65.33;98173.13;4446067;32;33682;-82
2024/01/15 02:43:29;;;;;;;;;;;;;;;0.62;65.18;98163.75;4446582;32;33904;-82
2024/01/15 02:45:58;;;;;;;;;;;;;;;0.56;65.27;98168.88;4448917;32;33554;-80
2024/01/15 02:48:26;;;;;;;;;;;;;;;0.55;64.91;98152.69;4451364;32;33941;-81
2024/01/15 02:50:58;;;;;;;;;;;;;;;0.63;64.35;98142.50;4446462;32;33782;-81
2024/01/15 02:53:26;;;;;;;;;;;;;;;0.77;63.23;98185.91;4446057;32;33938;-81
2024/01/15 02:56:02;;;;;;;;;;;;;;;0.28;64.45;98190.88;4451662;32;33713;-84
2024/01/15 02:58:32;;;;;;;;;;;;;;;0.12;65.31;98177.19;4446872;32;33822;-82
2024/01/15 03:01:04;;;;;;;;;;;;;;;0.07;65.65;98164.44;4451322;32;32139;-81
2024/01/15 03:03:39;;;;;;;;;;;;;;;0.18;64.99;98156.84;4445759;32;34039;-82
2024/01/15 03:06:08;;;;;;;;;;;;;;;0.17;65.28;98148.34;4457885;32;34101;-81
2024/01/15 03:08:37;;;;;;;;;;;;;;;-0.04;65.30;98146.56;4457233;32;34410;-82
2024/01/15 03:11:07;;;;;;;;;;;;;;;0.17;64.88;98137.28;4455257;32;32487;-81
2024/01/15 03:13:40;;;;;;;;;;;;;;;0.07;64.71;98128.75;4466343;32;33174;-83
2024/01/15 03:16:08;;;;;;;;;;;;;;;0.14;64.41;98130.47;4456167;32;34693;-81
2024/01/15 03:18:37;;;;;;;;;;;;;;;-0.05;64.93;98123.59;4446201;32;33422;-82
2024/01/15 03:21:09;;;;;;;;;;;;;;;-0.10;64.86;98117.63;4446055;32;32999;-81
2024/01/15 03:23:38;;;;;;;;;;;;;;;0.01;64.62;98117.69;4451033;32;34201;-82
2024/01/15 03:26:11;;;;;;;;;;;;;;;-0.09;64.76;98110.00;4446239;32;33917;-80
2024/01/15 03:28:47;;;;;;;;;;;;;;;0.09;63.90;98105.81;4445536;32;34116;-82
2024/01/15 03:31:16;;;;;;;;;;;;;;;-0.18;64.64;98097.22;4445516;32;32877;-83
2024/01/15 03:33:46;;;;;;;;;;;;;;;-0.23;65.07;98111.63;4446036;32;33863;-81
2024/01/15 03:36:14;;;;;;;;;;;;;;;-0.03;63.99;98115.09;4450484;32;34640;-83
2024/01/15 03:38:44;;;;;;;;;;;;;;;-0.16;64.82;98128.66;4449753;32;33760;-82
2024/01/15 03:41:17;;;;;;;;;;;;;;;-0.02;64.39;98142.31;4445202;32;33741;-83
2024/01/15 03:43:45;;;;;;;;;;;;;;;-0.16;64.85;98123.56;4447400;32;33577;-81
2024/01/15 03:46:15;;;;;;;;;;;;;;;-0.22;65.22;98129.50;4452954;32;34728;-82
2024/01/15 03:48:50;;;;;;;;;;;;;;;-0.29;65.80;98125.22;4449767;32;34507;-81
2024/01/15 03:51:19;;;;;;;;;;;;;;;-0.15;65.48;98134.59;4447646;32;33425;-81
2024/01/15 03:53:53;;;;;;;;;;;;;;;-0.01;64.53;98148.25;4447764;32;34729;-81
2024/01/15 03:56:23;;;;;;;;;;;;;;;-0.23;65.13;98129.47;4449779;32;33597;-84
2024/01/15 03:58:52;;;;;;;;;;;;;;;-0.10;64.94;98143.13;4467157;32;34633;-82
2024/01/15 04:01:21;;;;;;;;;;;;;;;-0.28;65.18;98134.56;4463193;32;33995;-84
2024/01/15 04:03:50;;;;;;;;;;;;;;;-0.27;64.65;98138.78;4463205;32;34358;-82
2024/01/15 04:06:22;;;;;;;;;;;;;;;-0.32;65.01;98163.41;4447866;32;33839;-81
2024/01/15 04:08:54;;;;;;;;;;;;;;;-0.39;65.10;98114.94;4453247;32;34407;-82
2024/01/15 04:11:24;;;;;;;;;;;;;;;-0.47;65.96;98112.38;4451742;32;32938;-81
2024/01/15 04:13:58;;;;;;;;;;;;;;;-0.37;65.29;98124.31;4449119;32;33628;-84
2024/01/15 04:16:27;;;;;;;;;;;;;;;-0.66;65.94;98111.41;4450915;32;34910;-81
2024/01/15 04:18:56;;;;;;;;;;;;;;;-0.17;64.92;98113.34;4453215;32;33973;-82
2024/01/15 04:21:27;;;;;;;;;;;;;;;-0.41;65.28;98098.81;4458251;32;33850;-83
2024/01/15 04:23:56;;;;;;;;;;;;;;;-0.34;65.30;98110.72;4447536;32;33990;-81
2024/01/15 04:26:29;;;;;;;;;;;;;;;-0.41;65.68;98104.78;4452216;32;33522;-82
2024/01/15 04:29:01;;;;;;;;;;;;;;;-0.44;65.17;98094.53;4454183;32;34069;-80
2024/01/15 04:31:29;;;;;;;;;;;;;;;-0.29;65.19;98099.75;4451864;32;33848;-81
2024/01/15 04:34:02;;;;;;;;;;;;;;;-0.33;65.40;98110.75;4463184;32;33796;-81
2024/01/15 04:36:30;;;;;;;;;;;;;;;-0.52;66.11;98094.50;4450271;32;33649;-81
2024/01/15 04:39:08;;;;;;;;;;;;;;;-0.28;65.92;98093.78;4447158;32;33641;-83
2024/01/15 04:41:38;;;;;;;;;;;;;;;-0.44;66.49;98089.44;4448251;32;33152;-82
2024/01/15 04:44:16;;;;;;;;;;;;;;;-0.43;66.43;98076.72;4452524;32;33836;-83
2024/01/15 04:46:48;;;;;;;;;;;;;;;-0.54;66.92;98083.47;4448279;32;32831;-81
2024/01/15 04:49:17;;;;;;;;;;;;;;;-0.49;66.42;98081.78;4447667;32;34922;-81
2024/01/15 04:51:46;;;;;;;;;;;;;;;-0.52;66.22;98083.47;4450512;32;33124;-82
2024/01/15 04:54:17;;;;;;;;;;;;;;;-0.57;66.30;98090.25;4448292;32;33998;-82
2024/01/15 04:56:51;;;;;;;;;;;;;;;-0.53;65.76;98095.37;4459086;32;33734;-82
2024/01/15 04:59:20;;;;;;;;;;;;;;;-0.49;65.91;98097.06;4432782;32;32606;-80
2024/01/15 05:01:54;;;;;;;;;;;;;;;-0.89;67.72;98096.00;4446881;32;33498;-81
2024/01/15 05:04:22;;;;;;;;;;;;;;;-0.67;66.65;98097.00;4449819;32;34141;-81
2024/01/15 05:06:52;;;;;;;;;;;;;;;-0.75;67.12;98108.81;4458235;32;33661;-82
2024/01/15 05:09:21;;;;;;;;;;;;;;;-0.97;67.33;98101.00;4456516;32;33675;-84
2024/01/15 05:11:55;;;;;;;;;;;;;;;-0.88;66.98;98100.25;4447450;32;33070;-82
2024/01/15 05:14:24;;;;;;;;;;;;;;;-0.73;66.51;98105.41;4450000;32;34131;-80
2024/01/15 05:16:53;;;;;;;;;;;;;;;-0.95;67.31;98109.50;4456206;32;34356;-81
2024/01/15 05:19:23;;;;;;;;;;;;;;;-1.01;67.24;98111.19;4457897;32;33150;-81
2024/01/15 05:21:52;;;;;;;;;;;;;;;-1.21;68.18;98111.84;4451055;32;34021;-83
2024/01/15 05:24:23;;;;;;;;;;;;;;;-1.34;68.78;98102.44;4447169;32;34361;-81
2024/01/15 05:26:59;;;;;;;;;;;;;;;-1.35;68.25;98104.13;4449701;32;33757;-80
2024/01/15 05:29:27;;;;;;;;;;;;;;;-1.24;68.41;98111.00;4454216;32;33348;-81
2024/01/15 05:32:02;;;;;;;;;;;;;;;-1.21;68.21;98116.94;4461848;32;33224;-82
2024/01/15 05:34:31;;;;;;;;;;;;;;;-0.95;67.24;98118.84;4460319;32;34124;-82
2024/01/15 05:37:00;;;;;;;;;;;;;;;-0.93;66.66;98114.62;4462926;32;34675;-80
2024/01/15 05:39:28;;;;;;;;;;;;;;;-1.15;67.44;98103.44;4462657;32;33515;-81
2024/01/15 05:41:59;;;;;;;;;;;;;;;-0.92;66.43;98098.50;4462072;32;33097;-81
2024/01/15 05:44:32;;;;;;;;;;;;;;;-0.93;66.18;98102.75;4458531;32;33638;-80
2024/01/15 05:47:00;;;;;;;;;;;;;;;-0.83;65.82;98102.81;4448762;32;34802;-80
2024/01/15 05:49:31;;;;;;;;;;;;;;;-0.91;66.21;98115.50;4446388;32;33924;-83
2024/01/15 05:52:06;;;;;;;;;;;;;;;-1.14;67.04;98117.84;4446016;32;33404;-81
2024/01/15 05:54:35;;;;;;;;;;;;;;;-1.04;66.60;98118.78;4455344;32;33437;-80
2024/01/15 05:57:12;;;;;;;;;;;;;;;-1.18;67.58;98116.16;4451746;32;33763;-82
2024/01/15 05:59:41;;;;;;;;;;;;;;;-1.17;67.15;98113.59;4450502;32;34485;-81
2024/01/15 06:02:10;;;;;;;;;;;;;;;-1.07;67.28;98107.72;4458658;32;33187;-81
2024/01/15 06:04:39;;;;;;;;;;;;;;;-1.18;67.70;98108.50;4460494;32;33815;-81
2024/01/15 06:07:10;;;;;;;;;;;;;;;-0.90;66.83;98096.81;4464379;32;34227;-83
2024/01/15 06:09:39;;;;;;;;;;;;;;;-0.94;67.19;98098.50;4447957;32;34162;-81
2024/01/15 06:12:13;;;;;;;;;;;;;;;-1.04;67.06;98096.72;4446526;32;33761;-81
2024/01/15 06:14:43;;;;;;;;;;;;;;;-0.96;67.32;98097.66;4448879;32;33767;-82
2024/01/15 06:17:13;;;;;;;;;;;;;;;-0.95;67.11;98090.84;4443871;32;33394;-81
2024/01/15 06:19:41;;;;;;;;;;;;;;;-0.95;67.59;98099.34;4445149;32;33896;-81
2024/01/15 06:22:10;;;;;;;;;;;;;;;-0.67;67.05;98120.75;4447149;32;33723;-81
2024/01/15 06:24:40;;;;;;;;;;;;;;;-0.66;67.08;98114.81;4448914;32;34501;-80
2024/01/15 06:27:11;;;;;;;;;;;;;;;-0.94;68.12;98110.41;4457595;32;34404;-80
2024/01/15 06:29:45;;;;;;;;;;;;;;;-0.68;67.66;98113.09;4457869;32;33924;-81
2024/01/15 06:32:22;;;;;;;;;;;;;;;-0.51;67.35;98111.53;4440738;32;33760;-80
2024/01/15 06:34:51;;;;;;;;;;;;;;;-0.56;68.05;98117.41;4452463;32;34696;-81
2024/01/15 06:37:26;;;;;;;;;;;;;;;-0.50;68.18;98117.47;4456646;32;34564;-81
2024/01/15 06:39:56;;;;;;;;;;;;;;;-0.72;69.11;98104.59;4458809;32;34357;-81
2024/01/15 06:42:28;;;;;;;;;;;;;;;-0.59;68.22;98108.06;4449530;32;32575;-80
2024/01/15 06:45:04;;;;;;;;;;;;;;;-0.31;68.04;98114.16;4451490;32;34795;-82
2024/01/15 06:47:33;;;;;;;;;;;;;;;-0.26;67.95;98106.53;4455035;32;34804;-80
2024/01/15 06:50:01;;;;;;;;;;;;;;;-0.28;68.24;98119.25;4450716;32;33211;-81
2024/01/15 06:52:29;;;;;;;;;;;;;;;-0.28;68.46;98119.25;4455934;32;33457;-82
2024/01/15 06:55:05;;;;;;;;;;;;;;;-0.40;68.67;98119.22;4457668;32;34782;-80
2024/01/15 06:57:34;;;;;;;;;;;;;;;-0.07;67.95;98127.88;4453021;32;33827;-80
2024/01/15 07:00:09;;;;;;;;;;;;;;;-0.09;67.98;98135.50;4459504;32;33946;-82
2024/01/15 07:02:37;;;;;;;;;;;;;;;-0.10;67.85;98123.56;4453310;32;34038;-82
2024/01/15 07:05:07;;;;;;;;;;;;;;;-0.12;68.28;98117.66;4460277;32;34787;-81
2024/01/15 07:07:35;;;;;;;;;;;;;;;-0.06;67.91;98117.66;4450543;32;34594;-81
2024/01/15 07:10:10;;;;;;;;;;;;;;;-0.03;67.90;98122.75;4451049;32;34438;-83
2024/01/15 07:12:38;;;;;;;;;;;;;;;0.02;67.81;98135.53;4452034;32;33304;-83
2024/01/15 07:15:14;;;;;;;;;;;;;;;-0.02;67.58;98121.94;4453387;32;35062;-80
2024/01/15 07:17:42;;;;;;;;;;;;;;;-0.10;68.08;98135.47;4446087;32;33671;-80
2024/01/15 07:20:13;;;;;;;;;;;;;;;0.15;67.40;98142.38;4452707;32;33645;-83
2024/01/15 07:22:41;;;;;;;;;;;;;;;0.14;67.39;98147.47;4448786;32;33090;-83
2024/01/15 07:25:16;;;;;;;;;;;;;;;-0.05;67.83;98144.88;4452296;32;33656;-81
2024/01/15 07:27:46;;;;;;;;;;;;;;;0.03;67.30;98138.94;4455874;32;33715;-81
2024/01/15 07:30:19;;;;;;;;;;;;;;;0.06;67.71;98147.44;4447513;32;34167;-82
2024/01/15 07:32:47;;;;;;;;;;;;;;;0.06;67.19;98151.69;4463640;32;33349;-83
2024/01/15 07:35:17;;;;;;;;;;;;;;;-0.24;68.41;98148.19;4460403;32;34203;-81
2024/01/15 07:37:47;;;;;;;;;;;;;;;-0.31;68.75;98147.28;4453039;32;33971;-80
2024/01/15 07:40:17;;;;;;;;;;;;;;;-0.20;68.43;98151.56;4448944;32;34974;-82
2024/01/15 07:42:45;;;;;;;;;;;;;;;-0.22;67.73;98152.44;4448064;32;33465;-80
2024/01/15 07:45:14;;;;;;;;;;;;;;;-0.28;68.29;98160.03;4447827;32;33379;-82
2024/01/15 07:47:47;;;;;;;;;;;;;;;-0.12;67.75;98158.44;4448314;32;34214;-83
2024/01/15 07:50:16;;;;;;;;;;;;;;;0.23;66.32;98157.72;4453196;32;34296;-80
2024/01/15 07:52:48;;;;;;;;;;;;;;;-0.13;68.17;98148.22;4448791;32;33619;-81
2024/01/15 07:55:16;;;;;;;;;;;;;;;-0.09;67.48;98143.13;4447840;32;33852;-82
2024/01/15 07:57:49;;;;;;;;;;;;;;;-0.26;68.26;98144.75;4448344;32;33874;-83
2024/01/15 08:00:30;;;;;;;;;;;;;;;-0.06;68.03;98152.50;4454334;32;33282;-80
2024/01/15 08:03:06;;;;;;;;;;;;;;;-0.09;68.19;98153.34;4468401;32;33541;-82
2024/01/15 08:05:35;;;;;;;;;;;;;;;-0.08;67.93;98157.56;4458409;32;34478;-81
2024/01/15 08:08:08;;;;;;;;;;;;;;;0.03;67.54;98149.16;4458797;32;36424;-81
2024/01/15 08:10:36;;;;;;;;;;;;;;;0.37;66.43;98157.75;4463776;32;34080;-81
2024/01/15 08:13:07;;;;;;;;;;;;;;;0.39;66.96;98163.72;4438366;32;33015;-80
2024/01/15 08:15:36;;;;;;;;;;;;;;;0.47;67.22;98167.13;4447823;32;33796;-83
2024/01/15 08:18:12;;;;;;;;;;;;;;;0.53;67.36;98167.16;4452593;32;33953;-81
2024/01/15 08:20:42;;;;;;;;;;;;;;;0.45;67.81;98155.22;4447619;32;33542;-81
2024/01/15 08:23:12;;;;;;;;;;;;;;;0.53;68.25;98173.94;4447360;32;32405;-82
2024/01/15 08:25:41;;;;;;;;;;;;;;;0.49;68.23;98159.50;4452904;32;34319;-81
2024/01/15 08:28:12;;;;;;;;;;;;;;;0.40;68.33;98161.16;4452426;32;33754;-81
2024/01/15 08:30:41;;;;;;;;;;;;;;;0.51;67.81;98168.84;4447227;32;33313;-81
2024/01/15 08:33:10;;;;;;;;;;;;;;;0.59;67.07;98167.16;4447526;32;32979;-81
2024/01/15 08:35:52;;;;;;;;;;;;;;;0.74;66.79;98168.88;4463508;32;34085;-81
2024/01/15 08:38:26;;;;;;;;;;;;;;;0.90;65.74;98176.59;4468680;32;34099;-82
2024/01/15 08:41:00;;;;;;;;;;;;;;;1.18;64.87;98170.59;4463855;32;34540;-83
2024/01/15 08:43:28;;;;;;;;;;;;;;;1.47;63.87;98159.53;4462623;32;33712;-82
2024/01/15 08:46:00;;;;;;;;;;;;;;;1.56;62.90;98167.19;4450798;32;34880;-81
2024/01/15 08:48:28;;;;;;;;;;;;;;;1.14;64.66;98170.63;4452637;32;34834;-82
2024/01/15 08:50:59;;;;;;;;;;;;;;;1.47;62.84;98169.75;4447583;32;34430;-81
2024/01/15 08:53:27;;;;;;;;;;;;;;;1.54;62.70;98170.59;4447069;32;32676;-84
2024/01/15 08:56:05;;;;;;;;;;;;;;;1.71;62.50;98179.06;4450382;32;33359;-84
2024/01/15 08:58:34;;;;;;;;;;;;;;;1.69;62.11;98179.09;4447897;32;34978;-81
2024/01/15 09:01:04;;;;;;;;;;;;;;;1.95;61.42;98167.94;4452527;32;33885;-80
2024/01/15 09:03:33;;;;;;;;;;;;;;;2.11;60.53;98174.69;4447027;32;33043;-85
2024/01/15 09:06:09;;;;;;;;;;;;;;;1.96;61.24;98176.44;4457896;32;32931;-80
2024/01/15 09:08:37;;;;;;;;;;;;;;;2.20;60.08;98178.06;4464244;32;34335;-82
2024/01/15 09:11:07;;;;;;;;;;;;;;;2.09;59.42;98175.56;4468347;32;34245;-82
2024/01/15 09:13:36;;;;;;;;;;;;;;;2.28;59.11;98176.34;4462615;32;32839;-84
2024/01/15 09:16:05;;;;;;;;;;;;;;;2.27;59.22;98172.06;4463756;32;34162;-82
2024/01/15 09:18:35;;;;;;;;;;;;;;;2.18;59.25;98162.75;4455677;32;34081;-83
2024/01/15 09:21:11;;;;;;;;;;;;;;;2.55;58.43;98170.22;4446133;32;33525;-82
2024/01/15 09:23:40;;;;;;;;;;;;;;;2.53;58.25;98177.91;4452554;32;32648;-83
2024/01/15 09:26:10;;;;;;;;;;;;;;;2.74;58.23;98176.94;4459959;32;33973;-84
2024/01/15 09:28:38;;;;;;;;;;;;;;;2.62;57.70;98171.06;4463147;32;34638;-85
2024/01/15 09:31:07;;;;;;;;;;;;;;;2.78;57.66;98157.31;4462377;32;33696;-82
2024/01/15 09:33:40;;;;;;;;;;;;;;;2.67;57.80;98157.34;4467529;32;33880;-82
2024/01/15 09:36:14;;;;;;;;;;;;;;;2.81;57.12;98153.88;4457254;32;34568;-82
2024/01/15 09:38:47;;;;;;;;;;;;;;;2.97;57.57;98161.44;4456419;32;34087;-82
2024/01/15 09:41:23;;;;;;;;;;;;;;;3.14;57.31;98153.62;4449763;32;34065;-85
2024/01/15 09:43:52;;;;;;;;;;;;;;;3.27;56.35;98146.66;4452904;32;32779;-85
2024/01/15 09:46:23;;;;;;;;;;;;;;;3.59;55.32;98138.66;4452686;32;33874;-81
2024/01/15 09:48:52;;;;;;;;;;;;;;;3.57;55.25;98125.00;4450118;32;34895;-82
2024/01/15 09:51:25;;;;;;;;;;;;;;;3.37;55.84;98127.78;4447232;32;34205;-85
2024/01/15 09:53:59;;;;;;;;;;;;;;;3.55;55.27;98118.19;4447236;32;32884;-82
2024/01/15 09:56:28;;;;;;;;;;;;;;;3.81;54.58;98113.63;4455948;32;34151;-82
2024/01/15 09:58:57;;;;;;;;;;;;;;;3.89;54.37;98112.69;4452063;32;33738;-83
2024/01/15 10:01:25;;;;;;;;;;;;;;;3.59;55.33;98119.88;4447073;32;33859;-87
2024/01/15 10:03:55;;;;;;;;;;;;;;;3.88;54.77;98118.72;4449701;32;33144;-83
2024/01/15 10:06:28;;;;;;;;;;;;;;;3.90;54.06;98119.53;4449054;32;34182;-82
2024/01/15 10:09:03;;;;;;;;;;;;;;;3.83;53.90;98114.47;4451984;32;33623;-87
2024/01/15 10:11:32;;;;;;;;;;;;;;;4.05;53.49;98106.53;4454066;32;33697;-82
2024/01/15 10:14:03;;;;;;;;;;;;;;;4.32;52.05;98118.13;4449058;32;33540;-83
2024/01/15 10:16:32;;;;;;;;;;;;;;;4.00;51.95;98113.44;4447770;32;34584;-86
2024/01/15 10:19:01;;;;;;;;;;;;;;;4.12;52.00;98102.16;4446789;32;33801;-84
2024/01/15 10:21:34;;;;;;;;;;;;;;;4.37;51.29;98102.69;4452575;32;33433;-83
2024/01/15 10:24:08;;;;;;;;;;;;;;;4.49;50.24;98097.38;4446876;32;33777;-84
2024/01/15 10:26:36;;;;;;;;;;;;;;;4.40;50.69;98090.66;4455527;32;34344;-85
2024/01/15 10:29:05;;;;;;;;;;;;;;;4.45;50.37;98090.59;4458844;32;34983;-84
2024/01/15 10:31:36;;;;;;;;;;;;;;;4.76;49.29;98075.56;4466544;32;34269;-83
2024/01/15 10:34:15;;;;;;;;;;;;;;;4.86;49.00;98077.12;4467272;32;33167;-85
2024/01/15 10:36:47;;;;;;;;;;;;;;;4.84;48.90;98075.44;4463544;32;34233;-83
2024/01/15 10:39:24;;;;;;;;;;;;;;;4.88;48.74;98071.94;4449748;32;34005;-86
2024/01/15 10:41:53;;;;;;;;;;;;;;;4.81;48.06;98071.22;4445575;32;33896;-84
2024/01/15 10:44:23;;;;;;;;;;;;;;;4.70;48.38;98079.06;4456995;32;33247;-83
2024/01/15 10:46:57;;;;;;;;;;;;;;;4.99;48.14;98082.06;4447234;32;33403;-85
2024/01/15 10:49:27;;;;;;;;;;;;;;;5.15;47.28;98088.66;4455507;32;34093;-83
2024/01/15 10:52:01;;;;;;;;;;;;;;;4.83;47.60;98086.59;4453082;32;33978;-83
2024/01/15 10:54:35;;;;;;;;;;;;;;;4.91;47.48;98069.34;4453702;32;33423;-86
2024/01/15 10:57:05;;;;;;;;;;;;;;;5.05;47.40;98071.66;4453749;32;33248;-85
2024/01/15 10:59:41;;;;;;;;;;;;;;;5.13;47.19;98068.09;4449675;32;34814;-87
2024/01/15 11:02:10;;;;;;;;;;;;;;;5.13;47.03;98067.25;4448354;32;34118;-83
2024/01/15 11:04:39;;;;;;;;;;;;;;;5.07;46.72;98073.34;4448374;32;33085;-84
2024/01/15 11:07:11;;;;;;;;;;;;;;;5.03;46.76;98073.44;4451091;32;33737;-84
2024/01/15 11:09:48;;;;;;;;;;;;;;;4.91;47.14;98077.06;4464655;32;33876;-85
2024/01/15 11:12:17;;;;;;;;;;;;;;;5.12;46.83;98079.25;4454352;32;33264;-87
2024/01/15 11:14:51;;;;;;;;;;;;;;;5.06;47.00;98079.34;4455797;32;33664;-83
2024/01/15 11:17:19;;;;;;;;;;;;;;;4.99;46.79;98072.63;4458639;32;34789;-84
2024/01/15 11:19:50;;;;;;;;;;;;;;;4.68;47.84;98064.56;4446400;32;34176;-88
2024/01/15 11:22:39;;;;;;;;;;;;;;;5.00;47.29;98071.75;4443439;32;34449;-84
2024/01/15 11:25:13;;;;;;;;;;;;;;;5.33;46.55;98066.88;4436414;32;33577;-84
2024/01/15 11:27:42;;;;;;;;;;;;;;;5.15;46.82;98065.50;4452169;32;33808;-85
2024/01/15 11:30:13;;;;;;;;;;;;;;;5.21;46.62;98052.53;4447616;32;34872;-89
2024/01/15 11:32:42;;;;;;;;;;;;;;;5.13;47.06;98062.94;4450565;32;33827;-84
2024/01/15 11:35:11;;;;;;;;;;;;;;;5.23;46.81;98063.63;4452462;32;32576;-84
2024/01/15 11:38:06;;;;;;;;;;;;;;;5.32;46.91;98054.91;4436654;32;33416;-84
2024/01/15 11:40:42;;;;;;;;;;;;;;;5.29;47.06;98045.53;4420925;32;33848;-86
2024/01/15 11:43:12;;;;;;;;;;;;;;;5.35;46.69;98045.41;4432778;32;33815;-88
2024/01/15 11:45:49;;;;;;;;;;;;;;;5.35;47.03;98050.56;4439287;32;33298;-88
2024/01/15 11:48:18;;;;;;;;;;;;;;;5.32;47.13;98042.91;4454877;32;33525;-86
2024/01/15 11:50:50;;;;;;;;;;;;;;;5.34;47.20;98035.19;4452865;32;34261;-84
2024/01/15 11:53:22;;;;;;;;;;;;;;;5.39;47.19;98028.22;4439953;32;33968;-84
2024/01/15 11:55:53;;;;;;;;;;;;;;;5.69;46.60;98008.75;4433476;32;33224;-86
2024/01/15 11:58:27;;;;;;;;;;;;;;;5.78;46.49;98005.16;4437651;32;34656;-84
2024/01/15 12:00:56;;;;;;;;;;;;;;;5.90;46.05;98009.19;4437379;32;34488;-89
2024/01/15 12:03:27;;;;;;;;;;;;;;;5.47;45.36;98013.47;4439685;32;33795;-85
2024/01/15 12:05:55;;;;;;;;;;;;;;;5.34;45.98;98006.91;4448157;32;33217;-85
2024/01/15 12:08:25;;;;;;;;;;;;;;;5.26;45.99;98004.44;4441170;32;34548;-86
2024/01/15 12:10:58;;;;;;;;;;;;;;;5.25;45.45;98012.19;4443153;32;34025;-85
2024/01/15 12:13:27;;;;;;;;;;;;;;;4.95;46.13;98016.16;4437271;32;34729;-83
2024/01/15 12:15:55;;;;;;;;;;;;;;;5.26;45.36;98006.16;4440338;32;33277;-87
2024/01/15 12:18:31;;;;;;;;;;;;;;;5.32;45.32;98001.78;4443757;32;34149;-86
2024/01/15 12:21:00;;;;;;;;;;;;;;;5.39;45.20;97992.22;4438617;32;35066;-90
2024/01/15 12:23:29;;;;;;;;;;;;;;;5.36;45.21;97992.25;4443339;32;33695;-86
2024/01/15 12:25:59;;;;;;;;;;;;;;;5.27;45.13;97987.31;4437895;32;32009;-85
2024/01/15 12:28:31;;;;;;;;;;;;;;;5.10;45.72;97990.22;4438588;32;32943;-88
2024/01/15 12:31:05;;;;;;;;;;;;;;;5.39;45.58;97983.63;4440947;32;34255;-87
2024/01/15 12:33:34;;;;;;;;;;;;;;;5.36;45.71;97974.25;4442391;32;34491;-87
2024/01/15 12:36:03;;;;;;;;;;;;;;;5.41;45.88;97966.44;4437053;32;33434;-87
2024/01/15 12:38:34;;;;;;;;;;;;;;;5.51;45.45;97966.25;4440353;32;34397;-87
2024/01/15 12:41:04;;;;;;;;;;;;;;;5.57;45.65;97968.69;4439088;32;33723;-87
2024/01/15 12:43:40;;;;;;;;;;;;;;;5.57;45.26;97962.69;4442209;32;34360;-87
2024/01/15 12:46:09;;;;;;;;;;;;;;;5.68;44.89;97965.06;4451634;32;35375;-88
2024/01/15 12:48:40;;;;;;;;;;;;;;;5.41;45.94;97961.31;4446719;32;34289;-87
2024/01/15 12:51:09;;;;;;;;;;;;;;;5.41;46.34;97961.31;4445062;32;34153;-88
2024/01/15 12:53:40;;;;;;;;;;;;;;;5.65;45.71;97959.97;4441889;32;35374;-87
2024/01/15 12:56:09;;;;;;;;;;;;;;;5.57;45.92;97963.53;4436501;32;32145;-90
2024/01/15 12:58:39;;;;;;;;;;;;;;;5.80;45.30;97969.94;4435412;32;33358;-89
2024/01/15 13:01:09;;;;;;;;;;;;;;;5.69;45.53;97962.44;4431548;32;34704;-91
2024/01/15 13:03:38;;;;;;;;;;;;;;;5.82;45.09;97960.44;4431039;32;34011;-90
2024/01/15 13:06:09;;;;;;;;;;;;;;;5.54;45.23;97962.75;4433216;32;32745;-91
2024/01/15 13:08:38;;;;;;;;;;;;;;;5.63;45.08;97966.84;4439480;32;33590;-88
2024/01/15 13:11:08;;;;;;;;;;;;;;;5.49;45.20;97962.03;4440864;32;34406;-88